Terminal Aerodrome Forecast
Issued by NWS Wilmington, OH

Current Version | Previous Version | Graphics & Text | Print | Product List | Glossary On
Versions: 1 2 3 4 5 6 7 8 9 10 11 12 13 14 15 16 17 18 19 20 21 22 23 24 25 26
000
FTUS41 KILN 182320
TAFCVG
TAF
KCVG 182320Z 1900/2006 VRB03KT P6SM BKN100
     FM191000 VRB03KT P6SM VCSH BKN050
      TEMPO 1910/1913 5SM BR
     FM191500 18005KT P6SM -SHRA BKN050
     FM191900 18005KT P6SM VCSH BKN050
     FM200000 VRB03KT P6SM SCT080=

USA.gov is the U.S. government's official web portal to all federal, state and local government web resources and services.